Time;durP1;ratioP1;P1;durP2;ratioP2;P2;SDS_P1;SDS_P2;PMS_P1;PMS_P2;Temp;Humidity;BMP_temperature;BMP_pressure;BME280_temperature;BME280_humidity;BME280_pressure;Samples;Min_cycle;Max_cycle;Signal;HPM_P1;HPM_P2
2023/06/02 00:01:05;;;;;;;;;;;;;;;20.34;67.66;96826.92;624729;227;64984;-62
2023/06/02 00:03:33;;;;;;;;;;;;;;;20.34;67.65;96823.45;624562;225;63024;-62
2023/06/02 00:06:01;;;;;;;;;;;;;;;20.34;67.66;96826.12;624725;227;65799;-63
2023/06/02 00:08:36;;;;;;;;;;;;;;;20.34;67.66;96823.45;624771;227;64944;-62
2023/06/02 00:11:00;;;;;;;;;;;;;;;20.34;67.66;96823.45;624533;227;65396;-62
2023/06/02 00:13:28;;;;;;;;;;;;;;;20.34;67.65;96820.79;624746;227;63131;-62
2023/06/02 00:15:55;;;;;;;;;;;;;;;20.34;67.65;96818.91;624713;227;64820;-63
2023/06/02 00:18:23;;;;;;;;;;;;;;;20.34;67.65;96826.12;624772;227;65292;-63
2023/06/02 00:20:50;;;;;;;;;;;;;;;20.33;67.66;96819.20;624803;227;63031;-61
2023/06/02 00:23:18;;;;;;;;;;;;;;;20.33;67.65;96813.87;624778;227;64899;-60
2023/06/02 00:25:46;;;;;;;;;;;;;;;20.33;67.63;96821.88;624725;227;63122;-60
2023/06/02 00:28:13;;;;;;;;;;;;;;;20.34;67.65;96812.78;624744;227;62913;-60
2023/06/02 00:30:41;;;;;;;;;;;;;;;20.33;67.63;96820.00;624731;227;66103;-60
2023/06/02 00:33:09;;;;;;;;;;;;;;;20.34;67.65;96815.45;624767;227;65836;-60
2023/06/02 00:35:36;;;;;;;;;;;;;;;20.33;67.61;96808.53;624741;227;62795;-60
2023/06/02 00:38:04;;;;;;;;;;;;;;;20.33;67.62;96808.53;624752;227;65045;-60
2023/06/02 00:40:32;;;;;;;;;;;;;;;20.33;67.61;96808.53;624717;227;62908;-61
2023/06/02 00:43:01;;;;;;;;;;;;;;;20.33;67.60;96816.53;624711;227;65424;-60
2023/06/02 00:45:29;;;;;;;;;;;;;;;20.32;67.62;96802.36;624785;227;62968;-60
2023/06/02 00:47:56;;;;;;;;;;;;;;;20.33;67.63;96805.86;624772;227;65455;-61
2023/06/02 00:50:25;;;;;;;;;;;;;;;20.32;67.60;96807.70;624768;227;65372;-60
2023/06/02 00:52:54;;;;;;;;;;;;;;;20.33;67.59;96805.86;624752;227;62727;-60
2023/06/02 00:55:22;;;;;;;;;;;;;;;20.32;67.60;96807.70;624711;227;65319;-60
2023/06/02 00:57:51;;;;;;;;;;;;;;;20.32;67.60;96802.36;624794;227;65155;-60
2023/06/02 01:00:20;;;;;;;;;;;;;;;20.32;67.60;96801.58;624814;227;64903;-60
2023/06/02 01:02:49;;;;;;;;;;;;;;;20.32;67.62;96802.36;624756;227;64071;-60
2023/06/02 01:05:19;;;;;;;;;;;;;;;20.31;67.63;96799.98;624769;227;65268;-60
2023/06/02 01:07:47;;;;;;;;;;;;;;;20.31;67.63;96795.44;624777;227;65215;-60
2023/06/02 01:10:16;;;;;;;;;;;;;;;20.31;67.61;96791.98;624732;227;65413;-60
2023/06/02 01:12:44;;;;;;;;;;;;;;;20.31;67.63;96794.65;624835;227;64816;-59
2023/06/02 01:15:13;;;;;;;;;;;;;;;20.31;67.62;96799.98;624777;227;65081;-59
2023/06/02 01:17:45;;;;;;;;;;;;;;;20.31;67.65;96794.65;624757;227;65455;-60
2023/06/02 01:20:10;;;;;;;;;;;;;;;20.31;67.65;96797.31;624677;225;63323;-60
2023/06/02 01:22:48;;;;;;;;;;;;;;;20.31;67.63;96794.65;624759;227;65263;-59
2023/06/02 01:25:22;;;;;;;;;;;;;;;20.31;67.62;96799.98;624646;226;65204;-60
2023/06/02 01:27:50;;;;;;;;;;;;;;;20.30;67.61;96793.86;624846;227;63070;-60
2023/06/02 01:30:19;;;;;;;;;;;;;;;20.30;67.64;96793.06;624796;227;63946;-60
2023/06/02 01:32:51;;;;;;;;;;;;;;;20.30;67.66;96787.73;624749;227;65586;-60
2023/06/02 01:35:20;;;;;;;;;;;;;;;20.31;67.65;96797.31;624619;225;65123;-60
2023/06/02 01:37:50;;;;;;;;;;;;;;;20.30;67.65;96796.52;624849;227;64984;-59
2023/06/02 01:40:19;;;;;;;;;;;;;;;20.28;67.66;96795.98;624627;225;66984;-60
2023/06/02 01:42:47;;;;;;;;;;;;;;;20.30;67.67;96793.86;624770;227;65286;-60
2023/06/02 01:45:15;;;;;;;;;;;;;;;20.29;67.65;96788.77;624747;227;64959;-60
2023/06/02 01:47:42;;;;;;;;;;;;;;;20.30;67.66;96785.06;624752;227;65574;-60
2023/06/02 01:50:10;;;;;;;;;;;;;;;20.30;67.65;96795.73;624772;227;62698;-59
2023/06/02 01:52:38;;;;;;;;;;;;;;;20.29;67.64;96778.89;624803;227;65662;-60
2023/06/02 01:55:06;;;;;;;;;;;;;;;20.30;67.66;96787.73;624809;227;65279;-59
2023/06/02 01:57:34;;;;;;;;;;;;;;;20.28;67.62;96779.98;624787;227;63146;-59
2023/06/02 02:00:05;;;;;;;;;;;;;;;20.28;67.66;96779.98;624718;227;65787;-60
2023/06/02 02:02:34;;;;;;;;;;;;;;;20.29;67.67;96775.44;624747;225;45394;-59
2023/06/02 02:05:02;;;;;;;;;;;;;;;20.29;67.66;96780.77;624773;226;63663;-59
2023/06/02 02:07:29;;;;;;;;;;;;;;;20.28;67.64;96771.18;624789;226;63427;-60
2023/06/02 02:09:56;;;;;;;;;;;;;;;20.29;67.62;96783.44;624751;226;63674;-60
2023/06/02 02:12:23;;;;;;;;;;;;;;;20.28;67.62;96774.64;626003;226;65764;-60
2023/06/02 02:14:53;;;;;;;;;;;;;;;20.28;67.64;96779.98;627046;226;62484;-59
2023/06/02 02:17:24;;;;;;;;;;;;;;;20.28;67.62;96779.19;627017;226;63819;-59
2023/06/02 02:19:50;;;;;;;;;;;;;;;20.28;67.64;96785.31;627035;225;63984;-60
2023/06/02 02:22:18;;;;;;;;;;;;;;;20.28;67.62;96784.52;626995;226;65862;-59
2023/06/02 02:24:47;;;;;;;;;;;;;;;20.28;67.64;96784.52;627032;226;65535;-60
2023/06/02 02:27:14;;;;;;;;;;;;;;;20.27;67.64;96781.06;627034;226;65020;-60
2023/06/02 02:29:42;;;;;;;;;;;;;;;20.27;67.64;96783.73;627047;226;65833;-59
2023/06/02 02:32:10;;;;;;;;;;;;;;;20.28;67.66;96782.64;627060;226;65566;-60
2023/06/02 02:34:45;;;;;;;;;;;;;;;20.27;67.64;96783.73;627055;226;63397;-59
2023/06/02 02:37:10;;;;;;;;;;;;;;;20.28;67.64;96792.53;626852;225;65534;-60
2023/06/02 02:39:37;;;;;;;;;;;;;;;20.27;67.64;96791.73;626980;226;64363;-59
2023/06/02 02:42:05;;;;;;;;;;;;;;;20.27;67.69;96783.73;627065;226;65618;-59
2023/06/02 02:44:33;;;;;;;;;;;;;;;20.27;67.69;96789.06;627052;226;65119;-59
2023/06/02 02:47:00;;;;;;;;;;;;;;;20.27;67.67;96790.91;627110;226;63266;-59
2023/06/02 02:49:28;;;;;;;;;;;;;;;20.27;67.69;96788.24;627069;226;65319;-60
2023/06/02 02:51:56;;;;;;;;;;;;;;;20.27;68.04;96788.24;627000;226;65007;-59
2023/06/02 02:54:26;;;;;;;;;;;;;;;20.26;67.66;96791.99;627095;226;63003;-59
2023/06/02 02:56:53;;;;;;;;;;;;;;;20.27;67.73;96782.91;627104;226;63083;-59
2023/06/02 02:59:21;;;;;;;;;;;;;;;20.26;67.70;96791.99;627055;226;65023;-62
2023/06/02 03:01:49;;;;;;;;;;;;;;;20.27;67.79;96790.91;627067;226;65679;-62
2023/06/02 03:04:26;;;;;;;;;;;;;;;20.26;67.76;96786.66;627067;226;42146;-62
2023/06/02 03:06:53;;;;;;;;;;;;;;;20.26;67.77;96787.45;627000;226;65976;-62
2023/06/02 03:09:21;;;;;;;;;;;;;;;20.25;67.83;96785.86;627060;226;65565;-62
2023/06/02 03:11:48;;;;;;;;;;;;;;;20.25;67.73;96785.06;627012;226;63131;-62
2023/06/02 03:14:16;;;;;;;;;;;;;;;20.26;67.69;96791.99;627090;226;65741;-63
2023/06/02 03:16:44;;;;;;;;;;;;;;;20.26;67.73;96791.99;627107;226;65477;-63
2023/06/02 03:19:13;;;;;;;;;;;;;;;20.25;67.76;96791.20;626914;226;65152;-63
2023/06/02 03:21:43;;;;;;;;;;;;;;;20.25;67.79;96795.74;627060;226;62660;-61
2023/06/02 03:24:11;;;;;;;;;;;;;;;20.24;67.76;96797.58;627044;226;65704;-63
2023/06/02 03:26:45;;;;;;;;;;;;;;;20.25;67.73;96790.41;626731;226;65688;-63
2023/06/02 03:29:10;;;;;;;;;;;;;;;20.25;67.75;96795.74;627021;225;62505;-63
2023/06/02 03:31:38;;;;;;;;;;;;;;;20.24;67.75;96797.58;627025;226;66111;-63
2023/06/02 03:34:06;;;;;;;;;;;;;;;20.25;67.79;96801.08;626996;226;65932;-63
2023/06/02 03:36:37;;;;;;;;;;;;;;;20.24;67.76;96794.92;627032;226;65092;-63
2023/06/02 03:39:06;;;;;;;;;;;;;;;20.24;67.75;96792.25;627097;226;65602;-63
2023/06/02 03:41:34;;;;;;;;;;;;;;;20.24;67.75;96794.13;627146;226;62810;-63
2023/06/02 03:44:03;;;;;;;;;;;;;;;20.24;67.78;96791.45;627048;226;65049;-63
2023/06/02 03:46:31;;;;;;;;;;;;;;;20.24;68.24;96791.45;627094;226;65822;-61
2023/06/02 03:48:59;;;;;;;;;;;;;;;20.24;67.92;96794.13;627087;226;65103;-61
2023/06/02 03:51:27;;;;;;;;;;;;;;;20.23;67.77;96785.33;627111;226;65175;-61
2023/06/02 03:53:55;;;;;;;;;;;;;;;20.23;67.73;96784.53;627087;226;65881;-61
2023/06/02 03:56:22;;;;;;;;;;;;;;;20.23;67.80;96773.86;627105;226;65801;-61
2023/06/02 03:58:50;;;;;;;;;;;;;;;20.23;67.75;96779.20;627094;226;65857;-60
2023/06/02 04:01:19;;;;;;;;;;;;;;;20.22;67.81;96781.07;627110;226;65504;-62
2023/06/02 04:03:47;;;;;;;;;;;;;;;20.23;67.72;96771.19;627071;226;65412;-60
2023/06/02 04:06:15;;;;;;;;;;;;;;;20.22;67.76;96777.61;627104;226;65641;-61
2023/06/02 04:08:43;;;;;;;;;;;;;;;20.24;67.71;96778.11;627071;226;65077;-60
2023/06/02 04:11:11;;;;;;;;;;;;;;;20.23;67.80;96771.19;626984;226;63924;-61
2023/06/02 04:13:39;;;;;;;;;;;;;;;20.23;67.76;96773.86;627058;226;62818;-61
2023/06/02 04:16:07;;;;;;;;;;;;;;;20.22;67.78;96773.06;627065;226;65888;-61
2023/06/02 04:18:41;;;;;;;;;;;;;;;20.22;67.80;96772.27;627055;226;63064;-61
2023/06/02 04:21:10;;;;;;;;;;;;;;;20.22;68.09;96759.72;627059;226;63717;-61
2023/06/02 04:23:39;;;;;;;;;;;;;;;20.22;67.93;96762.39;626934;226;63895;-59
2023/06/02 04:26:07;;;;;;;;;;;;;;;20.21;67.89;96768.78;626960;226;65219;-59
2023/06/02 04:28:35;;;;;;;;;;;;;;;20.22;68.08;96766.94;627059;226;62786;-59
2023/06/02 04:31:05;;;;;;;;;;;;;;;20.21;68.00;96754.64;627120;226;65532;-61
2023/06/02 04:33:34;;;;;;;;;;;;;;;20.22;68.51;96753.59;627095;225;42787;-60
2023/06/02 04:36:01;;;;;;;;;;;;;;;20.21;67.89;96759.98;627082;226;64947;-61
2023/06/02 04:38:29;;;;;;;;;;;;;;;20.21;67.78;96758.11;627019;226;64160;-61
2023/06/02 04:41:01;;;;;;;;;;;;;;;20.21;68.18;96757.31;627112;226;65338;-61
2023/06/02 04:43:27;;;;;;;;;;;;;;;20.22;67.88;96764.27;627076;226;65742;-60
2023/06/02 04:45:56;;;;;;;;;;;;;;;20.22;67.98;96758.93;627134;226;63320;-61
2023/06/02 04:48:25;;;;;;;;;;;;;;;20.21;67.98;96757.31;627107;226;64031;-60
2023/06/02 04:50:53;;;;;;;;;;;;;;;20.21;67.93;96757.31;627076;226;65203;-59
2023/06/02 04:53:20;;;;;;;;;;;;;;;20.20;67.97;96758.39;627128;226;66046;-60
2023/06/02 04:55:48;;;;;;;;;;;;;;;20.20;67.99;96755.73;627173;226;64803;-60
2023/06/02 04:58:16;;;;;;;;;;;;;;;20.20;68.00;96755.73;627085;226;65619;-60
2023/06/02 05:00:44;;;;;;;;;;;;;;;20.20;68.13;96761.86;627128;226;63994;-59
2023/06/02 05:03:11;;;;;;;;;;;;;;;20.20;68.03;96755.73;626810;226;65653;-60
2023/06/02 05:05:39;;;;;;;;;;;;;;;20.20;68.24;96764.52;627092;226;64975;-59
2023/06/02 05:08:06;;;;;;;;;;;;;;;20.19;68.19;96760.27;627118;226;62763;-61
2023/06/02 05:10:34;;;;;;;;;;;;;;;20.20;68.03;96758.39;627088;226;63146;-59
2023/06/02 05:13:02;;;;;;;;;;;;;;;20.19;68.04;96760.27;627052;226;65166;-59
2023/06/02 05:15:29;;;;;;;;;;;;;;;20.19;68.19;96760.27;627092;226;65566;-60
2023/06/02 05:17:57;;;;;;;;;;;;;;;20.19;68.13;96768.27;627047;226;65191;-59
2023/06/02 05:20:26;;;;;;;;;;;;;;;20.20;68.06;96761.06;627102;226;63768;-60
2023/06/02 05:22:53;;;;;;;;;;;;;;;20.18;68.03;96767.45;626772;226;65748;-60
2023/06/02 05:25:21;;;;;;;;;;;;;;;20.20;68.09;96777.07;626995;226;65192;-60
2023/06/02 05:27:49;;;;;;;;;;;;;;;20.19;68.19;96770.94;626945;226;62641;-59
2023/06/02 05:30:17;;;;;;;;;;;;;;;20.18;68.10;96764.78;626899;226;64194;-60
2023/06/02 05:32:45;;;;;;;;;;;;;;;20.18;68.24;96753.31;626603;226;65807;-59
2023/06/02 05:35:13;;;;;;;;;;;;;;;20.20;68.47;96755.73;626774;226;64577;-59
2023/06/02 05:37:42;;;;;;;;;;;;;;;20.17;68.21;96746.39;627072;226;64115;-60
2023/06/02 05:40:11;;;;;;;;;;;;;;;20.18;68.41;96754.11;626760;226;62700;-59
2023/06/02 05:42:38;;;;;;;;;;;;;;;20.18;68.61;96747.98;627047;226;64991;-60
2023/06/02 05:45:06;;;;;;;;;;;;;;;20.17;68.21;96752.52;626997;226;65421;-60
2023/06/02 05:47:35;;;;;;;;;;;;;;;20.17;68.13;96747.19;626981;226;49787;-63
2023/06/02 05:50:04;;;;;;;;;;;;;;;20.22;68.69;96743.71;627085;226;62516;-63
2023/06/02 05:52:32;;;;;;;;;;;;;;;20.20;68.27;96750.39;627061;226;63360;-63
2023/06/02 05:55:00;;;;;;;;;;;;;;;20.18;68.18;96746.11;627032;226;63076;-60
2023/06/02 05:57:27;;;;;;;;;;;;;;;20.24;68.42;96740.76;626318;226;65147;-60
2023/06/02 05:59:55;;;;;;;;;;;;;;;20.20;68.09;96742.39;624139;226;63261;-60
2023/06/02 06:02:23;;;;;;;;;;;;;;;20.18;68.66;96740.77;619591;229;65344;-60
2023/06/02 06:04:52;;;;;;;;;;;;;;;20.17;68.54;96733.05;619750;229;63845;-59
2023/06/02 06:07:20;;;;;;;;;;;;;;;20.20;69.45;96737.05;619760;229;63974;-61
2023/06/02 06:09:47;;;;;;;;;;;;;;;20.22;68.24;96727.70;619728;229;65094;-60
2023/06/02 06:12:15;;;;;;;;;;;;;;;20.19;68.48;96744.27;618626;229;65192;-60
2023/06/02 06:14:43;;;;;;;;;;;;;;;20.18;68.87;96731.97;617629;230;64825;-60
2023/06/02 06:17:10;;;;;;;;;;;;;;;20.17;69.14;96741.06;617650;229;63513;-60
2023/06/02 06:19:38;;;;;;;;;;;;;;;20.17;68.85;96736.52;617560;230;65161;-61
2023/06/02 06:22:09;;;;;;;;;;;;;;;20.17;68.62;96725.84;617658;228;46873;-61
2023/06/02 06:24:38;;;;;;;;;;;;;;;20.17;68.69;96731.17;617556;230;65233;-61
2023/06/02 06:27:07;;;;;;;;;;;;;;;20.18;68.85;96731.97;617540;230;65770;-61
2023/06/02 06:29:35;;;;;;;;;;;;;;;20.19;68.88;96741.59;617681;230;63281;-61
2023/06/02 06:32:03;;;;;;;;;;;;;;;20.18;68.98;96738.10;617624;230;65951;-62
2023/06/02 06:34:31;;;;;;;;;;;;;;;20.19;69.05;96746.93;617542;230;64856;-62
2023/06/02 06:36:58;;;;;;;;;;;;;;;20.18;69.08;96743.44;617601;230;62948;-62
2023/06/02 06:39:27;;;;;;;;;;;;;;;20.19;68.94;96736.26;617642;230;65556;-62
2023/06/02 06:41:54;;;;;;;;;;;;;;;20.19;68.87;96733.59;621097;227;64922;-61
2023/06/02 06:44:23;;;;;;;;;;;;;;;20.21;68.85;96735.97;624607;225;43154;-61
2023/06/02 06:46:51;;;;;;;;;;;;;;;20.20;68.87;96729.84;624610;227;65054;-61
2023/06/02 06:49:21;;;;;;;;;;;;;;;20.21;68.88;96735.97;624659;227;63843;-61
2023/06/02 06:51:49;;;;;;;;;;;;;;;20.20;68.83;96729.84;624677;227;63835;-62
2023/06/02 06:54:17;;;;;;;;;;;;;;;20.20;68.89;96724.50;624706;227;66104;-62
2023/06/02 06:56:45;;;;;;;;;;;;;;;20.22;68.81;96729.58;624709;227;65118;-61
2023/06/02 06:59:13;;;;;;;;;;;;;;;20.22;68.89;96724.24;624693;227;65687;-61
2023/06/02 07:01:41;;;;;;;;;;;;;;;20.22;68.69;96732.25;624653;227;63139;-63
2023/06/02 07:04:08;;;;;;;;;;;;;;;20.21;68.71;96734.09;624630;227;65090;-62
2023/06/02 07:06:37;;;;;;;;;;;;;;;20.22;68.70;96732.25;624506;227;65420;-62
2023/06/02 07:09:04;;;;;;;;;;;;;;;20.22;68.70;96737.58;624627;227;63204;-62
2023/06/02 07:11:33;;;;;;;;;;;;;;;20.22;68.70;96732.25;624715;225;62911;-62
2023/06/02 07:14:01;;;;;;;;;;;;;;;20.22;68.77;96733.04;624760;227;63100;-62
2023/06/02 07:16:28;;;;;;;;;;;;;;;20.23;68.78;96733.84;624651;227;65198;-61
2023/06/02 07:18:56;;;;;;;;;;;;;;;20.22;68.73;96733.04;624711;227;62904;-62
2023/06/02 07:21:23;;;;;;;;;;;;;;;20.22;68.70;96730.38;624707;227;63199;-62
2023/06/02 07:23:51;;;;;;;;;;;;;;;20.23;70.10;96728.50;624726;227;62833;-62
2023/06/02 07:26:18;;;;;;;;;;;;;;;20.22;68.78;96730.38;624663;227;65094;-61
2023/06/02 07:28:46;;;;;;;;;;;;;;;20.23;68.80;96736.50;624669;227;65304;-62
2023/06/02 07:31:13;;;;;;;;;;;;;;;20.23;68.82;96736.50;624558;227;65498;-61
2023/06/02 07:33:41;;;;;;;;;;;;;;;20.23;68.81;96733.84;624709;227;62998;-61
2023/06/02 07:36:09;;;;;;;;;;;;;;;20.24;68.79;96730.08;624723;227;65457;-61
2023/06/02 07:38:36;;;;;;;;;;;;;;;20.23;68.71;96736.50;624637;227;65086;-62
2023/06/02 07:41:04;;;;;;;;;;;;;;;20.27;72.59;96740.20;624718;227;65057;-61
2023/06/02 07:43:32;;;;;;;;;;;;;;;20.24;69.29;96736.22;624690;227;63094;-63
2023/06/02 07:45:59;;;;;;;;;;;;;;;20.24;68.89;96738.88;624665;227;62943;-62
2023/06/02 07:48:27;;;;;;;;;;;;;;;20.24;69.21;96738.88;624796;227;62976;-62
2023/06/02 07:50:54;;;;;;;;;;;;;;;20.25;69.06;96737.03;624691;227;62655;-63
2023/06/02 07:53:22;;;;;;;;;;;;;;;20.24;69.00;96738.88;624700;227;64940;-62
2023/06/02 07:55:49;;;;;;;;;;;;;;;20.24;69.10;96741.55;624648;227;65100;-62
2023/06/02 07:58:17;;;;;;;;;;;;;;;20.25;69.08;96747.71;624298;227;63117;-62
2023/06/02 08:00:48;;;;;;;;;;;;;;;20.25;69.21;96743.16;624780;226;44281;-62
2023/06/02 08:03:19;;;;;;;;;;;;;;;20.25;69.21;96740.50;624655;225;65123;-62
2023/06/02 08:05:46;;;;;;;;;;;;;;;20.25;69.34;96739.70;624686;227;65202;-61
2023/06/02 08:08:14;;;;;;;;;;;;;;;20.25;69.44;96737.83;624717;227;65033;-62
2023/06/02 08:10:42;;;;;;;;;;;;;;;20.25;69.48;96731.70;624650;227;64979;-62
2023/06/02 08:13:11;;;;;;;;;;;;;;;20.25;69.54;96727.16;626177;226;65312;-62
2023/06/02 08:15:38;;;;;;;;;;;;;;;20.26;71.62;96725.28;626872;226;63092;-62
2023/06/02 08:18:09;;;;;;;;;;;;;;;20.25;69.38;96721.03;626958;226;65005;-62
2023/06/02 08:20:37;;;;;;;;;;;;;;;20.25;69.46;96716.48;626382;225;65819;-66
2023/06/02 08:23:04;;;;;;;;;;;;;;;20.25;69.48;96721.03;627012;226;65174;-62
2023/06/02 08:25:32;;;;;;;;;;;;;;;20.25;69.36;96715.69;626940;226;62877;-62
2023/06/02 08:27:59;;;;;;;;;;;;;;;20.26;69.20;96714.61;626998;226;63165;-62
2023/06/02 08:30:27;;;;;;;;;;;;;;;20.25;68.83;96715.69;626952;226;64904;-61
2023/06/02 08:32:55;;;;;;;;;;;;;;;20.25;68.59;96708.48;626959;226;66075;-61
2023/06/02 08:35:22;;;;;;;;;;;;;;;20.26;68.46;96706.60;626859;226;64072;-62
2023/06/02 08:37:50;;;;;;;;;;;;;;;20.25;68.42;96711.14;626950;226;66429;-61
2023/06/02 08:40:19;;;;;;;;;;;;;;;20.26;68.32;96709.27;626934;226;65011;-62
2023/06/02 08:42:47;;;;;;;;;;;;;;;20.27;68.68;96709.02;626848;226;65395;-62
2023/06/02 08:45:20;;;;;;;;;;;;;;;20.31;68.45;96706.59;626881;226;65487;-62
2023/06/02 08:47:44;;;;;;;;;;;;;;;20.32;68.96;96703.63;626729;225;64909;-62
2023/06/02 08:50:11;;;;;;;;;;;;;;;20.34;69.00;96701.48;626857;226;63276;-62
2023/06/02 08:52:41;;;;;;;;;;;;;;;20.35;69.01;96710.28;626976;226;65195;-62
2023/06/02 08:55:09;;;;;;;;;;;;;;;20.36;68.97;96703.89;626985;226;62913;-61
2023/06/02 08:57:36;;;;;;;;;;;;;;;20.37;69.01;96705.48;626884;226;65620;-62
2023/06/02 09:00:04;;;;;;;;;;;;;;;20.37;68.91;96705.48;626963;226;65133;-61
2023/06/02 09:02:34;;;;;;;;;;;;;;;20.38;68.93;96699.09;626914;226;62933;-62
2023/06/02 09:05:02;;;;;;;;;;;;;;;20.38;68.96;96693.75;626910;226;62851;-62
2023/06/02 09:07:30;;;;;;;;;;;;;;;20.38;68.86;96691.88;626977;226;65194;-62
2023/06/02 09:09:58;;;;;;;;;;;;;;;20.39;68.92;96681.99;626865;226;62997;-62
2023/06/02 09:12:26;;;;;;;;;;;;;;;20.40;68.84;96680.91;626711;226;65841;-62
2023/06/02 09:15:09;;;;;;;;;;;;;;;20.40;68.84;96680.91;626931;226;65127;-62
2023/06/02 09:17:37;;;;;;;;;;;;;;;20.38;69.04;96675.07;626879;226;65976;-61
2023/06/02 09:20:10;;;;;;;;;;;;;;;20.34;69.17;96672.13;626998;226;64086;-61
2023/06/02 09:22:34;;;;;;;;;;;;;;;20.33;69.79;96672.42;626878;225;65171;-61
2023/06/02 09:25:02;;;;;;;;;;;;;;;20.32;68.89;96670.81;626754;226;65004;-62
2023/06/02 09:27:31;;;;;;;;;;;;;;;20.32;68.69;96668.14;627022;226;65166;-61
2023/06/02 09:30:03;;;;;;;;;;;;;;;20.31;68.85;96663.89;626986;226;65186;-62
2023/06/02 09:32:31;;;;;;;;;;;;;;;20.30;68.65;96664.97;621982;226;65037;-61
2023/06/02 09:34:58;;;;;;;;;;;;;;;20.30;68.56;96670.31;623882;226;65339;-61
2023/06/02 09:37:26;;;;;;;;;;;;;;;20.30;68.46;96668.44;623611;226;63067;-61
2023/06/02 09:39:54;;;;;;;;;;;;;;;20.30;68.52;96664.97;624413;226;63554;-61
2023/06/02 09:42:21;;;;;;;;;;;;;;;20.29;68.33;96658.02;620859;226;63338;-61
2023/06/02 09:45:05;;;;;;;;;;;;;;;20.29;68.35;96658.02;619814;229;65210;-62
2023/06/02 09:47:43;;;;;;;;;;;;;;;20.30;68.36;96643.62;619794;229;65070;-62
2023/06/02 09:50:13;;;;;;;;;;;;;;;20.28;68.43;96665.23;619894;229;65695;-62
2023/06/02 09:52:40;;;;;;;;;;;;;;;20.28;68.53;96662.56;619172;228;63003;-62
2023/06/02 09:55:08;;;;;;;;;;;;;;;20.28;68.36;96667.91;619687;229;63033;-62
2023/06/02 09:57:36;;;;;;;;;;;;;;;20.28;67.94;96672.45;619515;229;65761;-63
2023/06/02 10:00:04;;;;;;;;;;;;;;;20.28;68.01;96675.11;618749;229;65502;-62
2023/06/02 10:02:33;;;;;;;;;;;;;;;20.28;68.62;96664.44;618787;228;42166;-62
2023/06/02 10:05:01;;;;;;;;;;;;;;;20.29;68.54;96666.02;619813;229;64136;-62
2023/06/02 10:07:33;;;;;;;;;;;;;;;20.28;67.94;96667.11;619750;229;65204;-62
2023/06/02 10:10:19;;;;;;;;;;;;;;;20.28;68.05;96661.77;619773;229;64793;-62
2023/06/02 10:12:48;;;;;;;;;;;;;;;20.27;68.17;96655.64;618141;229;63351;-62
2023/06/02 10:15:26;;;;;;;;;;;;;;;20.28;68.10;96662.56;613741;231;63103;-62
2023/06/02 10:18:03;;;;;;;;;;;;;;;20.27;68.54;96649.48;614611;231;65102;-62
2023/06/02 10:20:35;;;;;;;;;;;;;;;20.27;68.12;96658.31;614837;231;62870;-62
2023/06/02 10:23:10;;;;;;;;;;;;;;;20.27;68.18;96652.15;614805;231;63106;-62
2023/06/02 10:25:42;;;;;;;;;;;;;;;20.27;67.85;96649.48;614617;231;65004;-61
2023/06/02 10:28:11;;;;;;;;;;;;;;;20.26;67.82;96643.35;613765;231;63407;-62
2023/06/02 10:30:38;;;;;;;;;;;;;;;20.26;67.71;96647.89;614837;231;63132;-62
2023/06/02 10:33:09;;;;;;;;;;;;;;;20.26;67.82;96643.35;614806;231;62973;-61
2023/06/02 10:35:54;;;;;;;;;;;;;;;20.27;67.79;96644.97;614707;231;65266;-61
2023/06/02 10:38:29;;;;;;;;;;;;;;;20.27;67.73;96644.14;614881;231;63950;-61
2023/06/02 10:40:56;;;;;;;;;;;;;;;20.28;67.73;96643.09;614817;231;65973;-62
2023/06/02 10:43:26;;;;;;;;;;;;;;;20.27;67.77;96636.14;614779;231;65635;-62
2023/06/02 10:46:15;;;;;;;;;;;;;;;20.27;67.74;96633.47;614878;231;63262;-62
2023/06/02 10:48:42;;;;;;;;;;;;;;;20.27;67.67;96628.14;614830;231;65277;-62
2023/06/02 10:51:11;;;;;;;;;;;;;;;20.27;67.62;96622.80;614787;231;65431;-61
2023/06/02 10:53:57;;;;;;;;;;;;;;;20.26;67.54;96621.22;614805;228;65512;-61
2023/06/02 10:56:41;;;;;;;;;;;;;;;20.26;67.51;96622.00;614813;231;63005;-61
2023/06/02 10:59:09;;;;;;;;;;;;;;;20.27;67.52;96622.80;614764;231;65636;-62
2023/06/02 11:01:50;;;;;;;;;;;;;;;20.26;67.98;96621.22;614808;231;65395;-61
2023/06/02 11:04:24;;;;;;;;;;;;;;;20.27;68.19;96620.12;614783;231;65300;-61
2023/06/02 11:07:26;;;;;;;;;;;;;;;20.26;68.25;96615.88;614737;231;65641;-60
2023/06/02 11:09:54;;;;;;;;;;;;;;;20.27;68.03;96620.95;614832;231;62422;-61
2023/06/02 11:12:22;;;;;;;;;;;;;;;20.28;68.12;96619.08;615094;229;65311;-61
2023/06/02 11:15:04;;;;;;;;;;;;;;;20.27;67.97;96617.46;617498;230;63261;-61
2023/06/02 11:17:35;;;;;;;;;;;;;;;20.27;67.98;96612.13;617450;230;65447;-64
2023/06/02 11:20:07;;;;;;;;;;;;;;;20.28;68.17;96609.20;617553;230;65343;-61
2023/06/02 11:22:36;;;;;;;;;;;;;;;20.32;68.26;96610.22;617457;227;65460;-61
2023/06/02 11:25:04;;;;;;;;;;;;;;;20.34;68.29;96612.62;617592;227;64027;-61
2023/06/02 11:27:42;;;;;;;;;;;;;;;20.32;68.66;96609.43;616892;230;65101;-61
2023/06/02 11:30:11;;;;;;;;;;;;;;;20.31;68.70;96607.84;617374;229;63286;-62
2023/06/02 11:32:39;;;;;;;;;;;;;;;20.30;68.13;96607.05;617480;230;65163;-62
2023/06/02 11:35:08;;;;;;;;;;;;;;;20.30;67.86;96607.05;617581;230;63162;-62
2023/06/02 11:37:36;;;;;;;;;;;;;;;20.28;67.67;96598.52;617517;230;65119;-61
2023/06/02 11:40:10;;;;;;;;;;;;;;;20.30;67.61;96600.92;617505;229;63171;-61
2023/06/02 11:42:38;;;;;;;;;;;;;;;20.30;67.52;96600.92;617521;230;65117;-64
2023/06/02 11:45:07;;;;;;;;;;;;;;;20.30;67.96;96598.26;617599;230;63404;-63
2023/06/02 11:47:35;;;;;;;;;;;;;;;20.31;67.25;96597.97;616543;230;65159;-62
2023/06/02 11:50:02;;;;;;;;;;;;;;;20.33;67.56;96603.83;616564;230;62865;-62
2023/06/02 11:52:33;;;;;;;;;;;;;;;20.33;67.78;96601.16;617337;230;63245;-62
2023/06/02 11:55:00;;;;;;;;;;;;;;;20.33;68.77;96601.16;617611;230;64978;-62
2023/06/02 11:57:33;;;;;;;;;;;;;;;20.33;68.86;96605.70;617569;230;62913;-62
2023/06/02 12:00:12;;;;;;;;;;;;;;;20.33;68.67;96597.70;617545;230;65055;-61
2023/06/02 12:02:43;;;;;;;;;;;;;;;20.31;68.61;96591.84;617462;230;45269;-61
2023/06/02 12:05:13;;;;;;;;;;;;;;;20.32;68.54;96588.08;617575;230;65008;-61
2023/06/02 12:07:40;;;;;;;;;;;;;;;20.31;68.54;96586.50;616936;229;65031;-61
2023/06/02 12:10:10;;;;;;;;;;;;;;;20.31;68.46;96589.17;617668;230;62827;-61
2023/06/02 12:12:37;;;;;;;;;;;;;;;20.31;68.43;96587.30;616841;227;63078;-61
2023/06/02 12:15:12;;;;;;;;;;;;;;;20.31;68.43;96589.96;614840;231;65084;-61
2023/06/02 12:17:41;;;;;;;;;;;;;;;20.32;68.44;96593.42;614829;231;65203;-61
2023/06/02 12:20:09;;;;;;;;;;;;;;;20.32;68.43;96596.09;614594;231;65029;-62
2023/06/02 12:22:38;;;;;;;;;;;;;;;20.32;68.38;96593.42;614669;231;65109;-65
2023/06/02 12:25:11;;;;;;;;;;;;;;;20.32;68.34;96593.42;614179;231;64974;-61
2023/06/02 12:27:39;;;;;;;;;;;;;;;20.33;68.62;96595.03;614828;231;64709;-62
2023/06/02 12:30:07;;;;;;;;;;;;;;;20.33;68.60;96590.48;614817;231;65367;-61
2023/06/02 12:32:35;;;;;;;;;;;;;;;20.32;68.71;96585.41;614804;231;65687;-61
2023/06/02 12:35:03;;;;;;;;;;;;;;;20.32;68.50;96593.42;614926;231;63805;-61
2023/06/02 12:37:30;;;;;;;;;;;;;;;20.33;68.56;96589.70;614787;231;63318;-61
2023/06/02 12:39:58;;;;;;;;;;;;;;;20.37;67.83;96593.39;614869;231;65243;-61
2023/06/02 12:42:26;;;;;;;;;;;;;;;20.38;67.99;96593.13;614414;231;62867;-61
2023/06/02 12:44:54;;;;;;;;;;;;;;;20.39;68.58;96589.38;614752;231;63237;-61
2023/06/02 12:47:22;;;;;;;;;;;;;;;20.40;68.76;96593.63;614871;231;63965;-61
2023/06/02 12:49:52;;;;;;;;;;;;;;;20.43;68.35;96581.60;614870;231;63009;-61
2023/06/02 12:52:22;;;;;;;;;;;;;;;20.47;68.26;96579.20;614810;231;62674;-61
2023/06/02 12:54:49;;;;;;;;;;;;;;;20.49;68.35;96580.52;614875;231;63089;-60
2023/06/02 12:57:18;;;;;;;;;;;;;;;20.51;68.44;96578.34;608182;231;67318;-61